sensor_id;sensor_type;location;lat;lon;timestamp;pressure;altitude;pressure_sealevel;temperature;humidity
21203;BME280;10759;51.982;9.232;2023-03-03T00:01:04;101129.22;;;1.28;100.00
21203;BME280;10759;51.982;9.232;2023-03-03T00:03:32;101114.19;;;1.25;100.00
21203;BME280;10759;51.982;9.232;2023-03-03T00:06:01;101131.00;;;1.32;100.00
21203;BME280;10759;51.982;9.232;2023-03-03T00:08:30;101129.84;;;1.07;100.00
21203;BME280;10759;51.982;9.232;2023-03-03T00:10:58;101117.66;;;1.18;100.00
21203;BME280;10759;51.982;9.232;2023-03-03T00:13:30;101130.03;;;1.24;100.00
21203;BME280;10759;51.982;9.232;2023-03-03T00:16:11;101121.38;;;1.37;100.00
21203;BME280;10759;51.982;9.232;2023-03-03T00:18:44;101135.63;;;1.48;100.00
21203;BME280;10759;51.982;9.232;2023-03-03T00:21:31;101142.53;;;1.40;100.00
21203;BME280;10759;51.982;9.232;2023-03-03T00:24:20;101115.22;;;1.37;100.00
21203;BME280;10759;51.982;9.232;2023-03-03T00:26:49;101124.03;;;1.36;100.00
21203;BME280;10759;51.982;9.232;2023-03-03T00:29:39;101122.91;;;1.17;100.00
21203;BME280;10759;51.982;9.232;2023-03-03T00:32:19;101119.31;;;1.09;100.00
21203;BME280;10759;51.982;9.232;2023-03-03T00:34:48;101121.03;;;1.06;100.00
21203;BME280;10759;51.982;9.232;2023-03-03T00:37:26;101120.72;;;0.83;100.00
21203;BME280;10759;51.982;9.232;2023-03-03T00:40:20;101115.47;;;0.85;100.00
21203;BME280;10759;51.982;9.232;2023-03-03T00:42:51;101108.31;;;0.78;100.00
21203;BME280;10759;51.982;9.232;2023-03-03T00:45:29;101123.34;;;0.82;100.00
21203;BME280;10759;51.982;9.232;2023-03-03T00:47:58;101114.03;;;1.09;100.00
21203;BME280;10759;51.982;9.232;2023-03-03T00:50:34;101108.78;;;1.12;100.00
21203;BME280;10759;51.982;9.232;2023-03-03T00:53:10;101067.09;;;0.86;100.00
21203;BME280;10759;51.982;9.232;2023-03-03T00:55:38;101123.31;;;0.80;100.00
21203;BME280;10759;51.982;9.232;2023-03-03T00:58:07;101115.41;;;0.79;100.00
21203;BME280;10759;51.982;9.232;2023-03-03T01:00:42;101125.94;;;0.79;100.00
21203;BME280;10759;51.982;9.232;2023-03-03T01:03:13;101125.00;;;0.75;100.00
21203;BME280;10759;51.982;9.232;2023-03-03T01:05:42;101113.56;;;0.75;100.00
21203;BME280;10759;51.982;9.232;2023-03-03T01:08:10;101048.97;;;0.47;100.00
21203;BME280;10759;51.982;9.232;2023-03-03T01:10:41;101111.00;;;0.79;100.00
21203;BME280;10759;51.982;9.232;2023-03-03T01:13:11;101123.41;;;0.87;100.00
21203;BME280;10759;51.982;9.232;2023-03-03T01:15:39;101120.13;;;1.04;100.00
21203;BME280;10759;51.982;9.232;2023-03-03T01:18:09;101114.88;;;1.06;100.00
21203;BME280;10759;51.982;9.232;2023-03-03T01:20:38;101114.81;;;1.01;100.00
21203;BME280;10759;51.982;9.232;2023-03-03T01:23:06;101116.81;;;1.22;100.00
21203;BME280;10759;51.982;9.232;2023-03-03T01:25:34;101122.22;;;1.32;100.00
21203;BME280;10759;51.982;9.232;2023-03-03T01:28:04;101123.88;;;1.23;100.00
21203;BME280;10759;51.982;9.232;2023-03-03T01:30:33;101127.47;;;1.30;100.00
21203;BME280;10759;51.982;9.232;2023-03-03T01:33:01;101100.66;;;0.96;100.00
21203;BME280;10759;51.982;9.232;2023-03-03T01:35:31;101112.34;;;1.17;100.00
21203;BME280;10759;51.982;9.232;2023-03-03T01:37:58;101110.59;;;1.16;100.00
21203;BME280;10759;51.982;9.232;2023-03-03T01:40:29;101097.41;;;1.16;100.00
21203;BME280;10759;51.982;9.232;2023-03-03T01:42:58;100980.38;;;0.43;100.00
21203;BME280;10759;51.982;9.232;2023-03-03T01:45:28;101129.06;;;1.17;100.00
21203;BME280;10759;51.982;9.232;2023-03-03T01:47:59;101138.72;;;1.14;100.00
21203;BME280;10759;51.982;9.232;2023-03-03T01:50:48;101136.06;;;1.12;100.00
21203;BME280;10759;51.982;9.232;2023-03-03T01:53:19;101136.03;;;1.11;100.00
21203;BME280;10759;51.982;9.232;2023-03-03T01:55:50;101120.00;;;0.94;100.00
21203;BME280;10759;51.982;9.232;2023-03-03T01:58:21;101141.81;;;0.82;100.00
21203;BME280;10759;51.982;9.232;2023-03-03T02:00:54;101089.69;;;0.64;100.00
21203;BME280;10759;51.982;9.232;2023-03-03T02:03:24;101143.88;;;1.04;100.00
21203;BME280;10759;51.982;9.232;2023-03-03T02:05:56;101142.00;;;0.94;100.00
21203;BME280;10759;51.982;9.232;2023-03-03T02:08:30;101139.41;;;1.00;100.00
21203;BME280;10759;51.982;9.232;2023-03-03T02:11:01;101132.25;;;0.90;100.00
21203;BME280;10759;51.982;9.232;2023-03-03T02:13:30;101138.50;;;0.97;100.00
21203;BME280;10759;51.982;9.232;2023-03-03T02:15:58;101102.88;;;0.66;100.00
21203;BME280;10759;51.982;9.232;2023-03-03T02:18:27;101044.25;;;0.23;100.00
21203;BME280;10759;51.982;9.232;2023-03-03T02:21:01;101133.94;;;0.85;100.00
21203;BME280;10759;51.982;9.232;2023-03-03T02:23:36;101134.75;;;0.79;100.00
21203;BME280;10759;51.982;9.232;2023-03-03T02:26:08;101129.25;;;0.66;100.00
21203;BME280;10759;51.982;9.232;2023-03-03T02:28:39;101094.19;;;0.73;100.00
21203;BME280;10759;51.982;9.232;2023-03-03T02:31:12;101130.28;;;0.75;100.00
21203;BME280;10759;51.982;9.232;2023-03-03T02:33:43;101122.19;;;0.63;100.00
21203;BME280;10759;51.982;9.232;2023-03-03T02:36:15;101133.91;;;0.83;100.00
21203;BME280;10759;51.982;9.232;2023-03-03T02:38:48;101124.13;;;0.75;100.00
21203;BME280;10759;51.982;9.232;2023-03-03T02:41:26;101124.19;;;0.81;100.00
21203;BME280;10759;51.982;9.232;2023-03-03T02:43:59;101125.13;;;0.84;100.00
21203;BME280;10759;51.982;9.232;2023-03-03T02:46:31;101131.38;;;0.90;100.00
21203;BME280;10759;51.982;9.232;2023-03-03T02:49:00;101120.53;;;0.71;100.00
21203;BME280;10759;51.982;9.232;2023-03-03T02:51:28;101086.25;;;0.70;100.00
21203;BME280;10759;51.982;9.232;2023-03-03T02:53:56;101035.66;;;0.36;100.00
21203;BME280;10759;51.982;9.232;2023-03-03T02:56:28;101129.41;;;0.75;100.00
21203;BME280;10759;51.982;9.232;2023-03-03T02:58:57;101060.50;;;0.52;100.00
21203;BME280;10759;51.982;9.232;2023-03-03T03:01:27;101131.22;;;0.79;100.00
21203;BME280;10759;51.982;9.232;2023-03-03T03:03:57;101139.97;;;0.75;100.00
21203;BME280;10759;51.982;9.232;2023-03-03T03:06:25;101052.06;;;0.16;100.00
21203;BME280;10759;51.982;9.232;2023-03-03T03:08:53;101134.81;;;0.85;100.00
21203;BME280;10759;51.982;9.232;2023-03-03T03:11:21;101129.41;;;0.75;100.00
21203;BME280;10759;51.982;9.232;2023-03-03T03:13:50;101136.25;;;0.62;100.00
21203;BME280;10759;51.982;9.232;2023-03-03T03:16:19;101124.78;;;0.61;100.00
21203;BME280;10759;51.982;9.232;2023-03-03T03:18:47;101123.94;;;0.62;100.00
21203;BME280;10759;51.982;9.232;2023-03-03T03:21:16;101019.47;;;0.11;100.00
21203;BME280;10759;51.982;9.232;2023-03-03T03:23:45;101131.75;;;0.55;100.00
21203;BME280;10759;51.982;9.232;2023-03-03T03:26:13;101105.41;;;0.58;100.00
21203;BME280;10759;51.982;9.232;2023-03-03T03:28:42;101116.84;;;0.57;100.00
21203;BME280;10759;51.982;9.232;2023-03-03T03:31:12;101104.53;;;0.57;100.00
21203;BME280;10759;51.982;9.232;2023-03-03T03:33:40;101108.03;;;0.56;100.00
21203;BME280;10759;51.982;9.232;2023-03-03T03:36:10;101125.81;;;0.70;100.00
21203;BME280;10759;51.982;9.232;2023-03-03T03:38:39;101108.88;;;0.54;100.00
21203;BME280;10759;51.982;9.232;2023-03-03T03:41:09;100891.91;;;-0.62;100.00
21203;BME280;10759;51.982;9.232;2023-03-03T03:43:37;101134.69;;;0.76;100.00
21203;BME280;10759;51.982;9.232;2023-03-03T03:46:06;101139.00;;;0.71;100.00
21203;BME280;10759;51.982;9.232;2023-03-03T03:48:36;101142.53;;;0.70;100.00
21203;BME280;10759;51.982;9.232;2023-03-03T03:51:05;101027.03;;;-0.10;100.00
21203;BME280;10759;51.982;9.232;2023-03-03T03:53:33;101139.81;;;0.64;100.00
21203;BME280;10759;51.982;9.232;2023-03-03T03:56:01;101126.38;;;0.47;100.00
21203;BME280;10759;51.982;9.232;2023-03-03T03:58:30;101131.53;;;0.41;100.00
21203;BME280;10759;51.982;9.232;2023-03-03T04:01:03;101139.38;;;0.35;100.00
21203;BME280;10759;51.982;9.232;2023-03-03T04:03:33;101098.84;;;0.31;100.00
21203;BME280;10759;51.982;9.232;2023-03-03T04:06:07;101074.81;;;0.11;100.00
21203;BME280;10759;51.982;9.232;2023-03-03T04:08:35;101120.88;;;0.33;100.00
21203;BME280;10759;51.982;9.232;2023-03-03T04:11:03;101146.78;;;0.60;100.00
21203;BME280;10759;51.982;9.232;2023-03-03T04:13:31;101137.00;;;0.53;100.00
21203;BME280;10759;51.982;9.232;2023-03-03T04:16:04;101140.56;;;0.55;100.00
21203;BME280;10759;51.982;9.232;2023-03-03T04:18:33;101081.97;;;0.18;100.00
21203;BME280;10759;51.982;9.232;2023-03-03T04:21:02;101123.84;;;0.56;100.00
21203;BME280;10759;51.982;9.232;2023-03-03T04:23:32;101125.78;;;0.68;100.00
21203;BME280;10759;51.982;9.232;2023-03-03T04:26:00;101127.56;;;0.69;100.00
21203;BME280;10759;51.982;9.232;2023-03-03T04:28:29;101082.94;;;0.24;100.00
21203;BME280;10759;51.982;9.232;2023-03-03T04:30:58;101135.81;;;0.34;100.00
21203;BME280;10759;51.982;9.232;2023-03-03T04:33:29;101137.75;;;0.46;100.00
21203;BME280;10759;51.982;9.232;2023-03-03T04:35:58;101122.06;;;0.52;100.00
21203;BME280;10759;51.982;9.232;2023-03-03T04:38:26;101112.31;;;0.48;100.00
21203;BME280;10759;51.982;9.232;2023-03-03T04:40:56;101122.06;;;0.52;100.00
21203;BME280;10759;51.982;9.232;2023-03-03T04:43:27;101128.28;;;0.59;100.00
21203;BME280;10759;51.982;9.232;2023-03-03T04:45:56;101127.44;;;0.61;100.00
21203;BME280;10759;51.982;9.232;2023-03-03T04:48:24;101090.22;;;0.41;100.00
21203;BME280;10759;51.982;9.232;2023-03-03T04:50:52;101132.72;;;0.60;100.00
21203;BME280;10759;51.982;9.232;2023-03-03T04:53:20;101051.78;;;-0.01;100.00
21203;BME280;10759;51.982;9.232;2023-03-03T04:55:49;101141.44;;;0.54;100.00
21203;BME280;10759;51.982;9.232;2023-03-03T04:58:19;101151.78;;;0.42;100.00
21203;BME280;10759;51.982;9.232;2023-03-03T05:00:52;101157.00;;;0.39;100.00
21203;BME280;10759;51.982;9.232;2023-03-03T05:03:21;101157.00;;;0.39;100.00
21203;BME280;10759;51.982;9.232;2023-03-03T05:05:49;101157.06;;;0.42;100.00
21203;BME280;10759;51.982;9.232;2023-03-03T05:08:17;101161.34;;;0.35;100.00
21203;BME280;10759;51.982;9.232;2023-03-03T05:10:45;101152.44;;;0.27;100.00
21203;BME280;10759;51.982;9.232;2023-03-03T05:13:13;101150.25;;;0.03;100.00
21203;BME280;10759;51.982;9.232;2023-03-03T05:15:48;101169.19;;;0.31;100.00
21203;BME280;10759;51.982;9.232;2023-03-03T05:18:17;101168.16;;;0.23;100.00
21203;BME280;10759;51.982;9.232;2023-03-03T05:20:45;101169.09;;;0.26;100.00
21203;BME280;10759;51.982;9.232;2023-03-03T05:23:13;101173.63;;;0.33;100.00
21203;BME280;10759;51.982;9.232;2023-03-03T05:25:41;101180.38;;;0.17;100.00
21203;BME280;10759;51.982;9.232;2023-03-03T05:28:09;101177.75;;;0.17;100.00
21203;BME280;10759;51.982;9.232;2023-03-03T05:30:37;101178.72;;;0.24;100.00
21203;BME280;10759;51.982;9.232;2023-03-03T05:33:07;101180.66;;;0.34;100.00
21203;BME280;10759;51.982;9.232;2023-03-03T05:35:35;101140.59;;;0.04;100.00
21203;BME280;10759;51.982;9.232;2023-03-03T05:38:02;101187.50;;;0.25;100.00
21203;BME280;10759;51.982;9.232;2023-03-03T05:40:31;101188.31;;;0.17;100.00
21203;BME280;10759;51.982;9.232;2023-03-03T05:42:59;101184.00;;;0.23;100.00
21203;BME280;10759;51.982;9.232;2023-03-03T05:45:27;101184.88;;;0.25;100.00
21203;BME280;10759;51.982;9.232;2023-03-03T05:47:55;101077.47;;;-0.40;100.00
21203;BME280;10759;51.982;9.232;2023-03-03T05:50:24;101149.44;;;0.06;100.00
21203;BME280;10759;51.982;9.232;2023-03-03T05:52:52;101182.31;;;0.29;100.00
21203;BME280;10759;51.982;9.232;2023-03-03T05:55:20;101178.50;;;0.10;100.00
21203;BME280;10759;51.982;9.232;2023-03-03T05:57:47;101168.88;;;0.14;100.00
21203;BME280;10759;51.982;9.232;2023-03-03T06:00:16;101167.13;;;0.13;100.00
21203;BME280;10759;51.982;9.232;2023-03-03T06:02:44;101167.34;;;0.27;100.00
21203;BME280;10759;51.982;9.232;2023-03-03T06:05:12;101057.25;;;-0.43;100.00
21203;BME280;10759;51.982;9.232;2023-03-03T06:07:42;101158.47;;;0.21;100.00
21203;BME280;10759;51.982;9.232;2023-03-03T06:10:10;101167.47;;;0.33;100.00
21203;BME280;10759;51.982;9.232;2023-03-03T06:12:40;101159.63;;;0.37;100.00
21203;BME280;10759;51.982;9.232;2023-03-03T06:15:09;101100.81;;;-0.12;100.00
21203;BME280;10759;51.982;9.232;2023-03-03T06:17:37;101168.09;;;0.18;100.00
21203;BME280;10759;51.982;9.232;2023-03-03T06:20:06;101170.06;;;0.31;100.00
21203;BME280;10759;51.982;9.232;2023-03-03T06:22:34;101170.06;;;0.31;100.00
21203;BME280;10759;51.982;9.232;2023-03-03T06:25:04;101176.19;;;0.30;100.00
21203;BME280;10759;51.982;9.232;2023-03-03T06:27:32;101165.34;;;0.12;100.00
21203;BME280;10759;51.982;9.232;2023-03-03T06:30:01;101181.22;;;0.16;100.00
21203;BME280;10759;51.982;9.232;2023-03-03T06:32:29;101105.88;;;-0.24;100.00
21203;BME280;10759;51.982;9.232;2023-03-03T06:34:57;101180.44;;;0.20;100.00
21203;BME280;10759;51.982;9.232;2023-03-03T06:37:25;101124.81;;;0.05;100.00
21203;BME280;10759;51.982;9.232;2023-03-03T06:39:52;101179.69;;;0.28;100.00
21203;BME280;10759;51.982;9.232;2023-03-03T06:42:22;101196.44;;;0.31;100.00
21203;BME280;10759;51.982;9.232;2023-03-03T06:44:50;101198.84;;;0.17;100.00
21203;BME280;10759;51.982;9.232;2023-03-03T06:47:18;101193.63;;;0.20;100.00
21203;BME280;10759;51.982;9.232;2023-03-03T06:49:46;101211.09;;;0.15;100.00
21203;BME280;10759;51.982;9.232;2023-03-03T06:52:18;101212.06;;;0.22;100.00
21203;BME280;10759;51.982;9.232;2023-03-03T06:54:47;101210.44;;;0.29;100.00
21203;BME280;10759;51.982;9.232;2023-03-03T06:57:16;101206.78;;;0.20;100.00
21203;BME280;10759;51.982;9.232;2023-03-03T06:59:48;101211.13;;;0.17;100.00
21203;BME280;10759;51.982;9.232;2023-03-03T07:02:20;101224.34;;;0.18;100.00
21203;BME280;10759;51.982;9.232;2023-03-03T07:04:48;101227.13;;;0.28;100.00
21203;BME280;10759;51.982;9.232;2023-03-03T07:07:18;101236.84;;;0.30;100.00
21203;BME280;10759;51.982;9.232;2023-03-03T07:09:48;101243.22;;;0.43;100.00
21203;BME280;10759;51.982;9.232;2023-03-03T07:12:18;101230.91;;;0.42;100.00
21203;BME280;10759;51.982;9.232;2023-03-03T07:14:51;101244.53;;;0.19;100.00
21203;BME280;10759;51.982;9.232;2023-03-03T07:17:23;101115.13;;;-0.46;100.00
21203;BME280;10759;51.982;9.232;2023-03-03T07:19:52;101249.03;;;0.24;100.00
21203;BME280;10759;51.982;9.232;2023-03-03T07:22:23;101235.81;;;0.20;100.00
21203;BME280;10759;51.982;9.232;2023-03-03T07:24:53;101238.66;;;0.33;100.00
21203;BME280;10759;51.982;9.232;2023-03-03T07:27:24;101213.69;;;0.14;100.00
21203;BME280;10759;51.982;9.232;2023-03-03T07:30:00;101243.00;;;0.31;100.00
21203;BME280;10759;51.982;9.232;2023-03-03T07:32:41;101247.28;;;0.24;100.00
21203;BME280;10759;51.982;9.232;2023-03-03T07:35:28;101251.00;;;0.35;100.00
21203;BME280;10759;51.982;9.232;2023-03-03T07:37:58;101259.97;;;0.45;100.00
21203;BME280;10759;51.982;9.232;2023-03-03T07:40:34;101192.75;;;0.20;100.00
21203;BME280;10759;51.982;9.232;2023-03-03T07:43:29;101253.16;;;0.58;100.00
21203;BME280;10759;51.982;9.232;2023-03-03T07:46:05;101256.63;;;0.55;100.00
21203;BME280;10759;51.982;9.232;2023-03-03T07:48:43;101255.91;;;0.64;100.00
21203;BME280;10759;51.982;9.232;2023-03-03T07:51:18;101250.28;;;0.46;100.00
21203;BME280;10759;51.982;9.232;2023-03-03T07:53:48;101268.28;;;0.70;100.00
21203;BME280;10759;51.982;9.232;2023-03-03T07:56:25;101262.13;;;0.69;100.00
21203;BME280;10759;51.982;9.232;2023-03-03T07:58:54;101275.66;;;0.89;100.00
21203;BME280;10759;51.982;9.232;2023-03-03T08:01:35;101240.00;;;0.59;100.00
21203;BME280;10759;51.982;9.232;2023-03-03T08:04:14;101261.94;;;0.58;100.00
21203;BME280;10759;51.982;9.232;2023-03-03T08:06:51;101290.44;;;0.79;100.00
21203;BME280;10759;51.982;9.232;2023-03-03T08:09:42;101244.31;;;0.56;100.00
21203;BME280;10759;51.982;9.232;2023-03-03T08:12:26;101277.38;;;0.89;100.00
21203;BME280;10759;51.982;9.232;2023-03-03T08:14:57;101285.44;;;0.98;100.00
21203;BME280;10759;51.982;9.232;2023-03-03T08:17:38;101288.72;;;0.83;100.00
21203;BME280;10759;51.982;9.232;2023-03-03T08:20:35;101291.53;;;0.92;100.00
21203;BME280;10759;51.982;9.232;2023-03-03T08:23:05;101281.91;;;0.97;100.00
21203;BME280;10759;51.982;9.232;2023-03-03T08:25:33;101284.47;;;0.91;100.00
21203;BME280;10759;51.982;9.232;2023-03-03T08:28:01;101136.00;;;-0.10;100.00
21203;BME280;10759;51.982;9.232;2023-03-03T08:30:29;101275.38;;;0.74;100.00
21203;BME280;10759;51.982;9.232;2023-03-03T08:32:59;101279.19;;;0.91;100.00
21203;BME280;10759;51.982;9.232;2023-03-03T08:35:27;101270.44;;;0.95;100.00
21203;BME280;10759;51.982;9.232;2023-03-03T08:37:55;101281.88;;;0.96;100.00
21203;BME280;10759;51.982;9.232;2023-03-03T08:40:23;101274.97;;;1.02;100.00
21203;BME280;10759;51.982;9.232;2023-03-03T08:42:51;101277.59;;;1.02;100.00
21203;BME280;10759;51.982;9.232;2023-03-03T08:45:20;101279.50;;;1.13;100.00
21203;BME280;10759;51.982;9.232;2023-03-03T08:47:47;101271.69;;;1.19;100.00
21203;BME280;10759;51.982;9.232;2023-03-03T08:50:17;101254.72;;;1.03;100.00
21203;BME280;10759;51.982;9.232;2023-03-03T08:52:45;101277.81;;;1.18;100.00
21203;BME280;10759;51.982;9.232;2023-03-03T08:55:13;101281.41;;;1.23;100.00
21203;BME280;10759;51.982;9.232;2023-03-03T08:57:41;101288.53;;;1.27;100.00
21203;BME280;10759;51.982;9.232;2023-03-03T09:00:12;101283.28;;;1.30;100.00
21203;BME280;10759;51.982;9.232;2023-03-03T09:02:40;101296.38;;;1.21;100.00
21203;BME280;10759;51.982;9.232;2023-03-03T09:05:09;101294.59;;;1.20;100.00
21203;BME280;10759;51.982;9.232;2023-03-03T09:07:39;101293.91;;;1.33;100.00
21203;BME280;10759;51.982;9.232;2023-03-03T09:10:09;101195.47;;;0.82;100.00
21203;BME280;10759;51.982;9.232;2023-03-03T09:12:39;101290.47;;;1.40;100.00
21203;BME280;10759;51.982;9.232;2023-03-03T09:15:14;101290.72;;;1.59;100.00
21203;BME280;10759;51.982;9.232;2023-03-03T09:17:43;101268.53;;;1.43;100.00
21203;BME280;10759;51.982;9.232;2023-03-03T09:20:30;101182.31;;;0.29;100.00
21203;BME280;10759;51.982;9.232;2023-03-03T09:23:21;101282.38;;;1.26;100.00
21203;BME280;10759;51.982;9.232;2023-03-03T09:25:52;101298.78;;;1.68;100.00
21203;BME280;10759;51.982;9.232;2023-03-03T09:28:23;101290.22;;;1.89;100.00
21203;BME280;10759;51.982;9.232;2023-03-03T09:30:53;101183.06;;;1.42;100.00
21203;BME280;10759;51.982;9.232;2023-03-03T09:33:26;101299.09;;;1.94;100.00
21203;BME280;10759;51.982;9.232;2023-03-03T09:36:11;101298.25;;;1.97;100.00
21203;BME280;10759;51.982;9.232;2023-03-03T09:38:47;101305.56;;;2.19;100.00
21203;BME280;10759;51.982;9.232;2023-03-03T09:41:35;101300.16;;;2.07;100.00
21203;BME280;10759;51.982;9.232;2023-03-03T09:44:21;101301.22;;;2.24;100.00
21203;BME280;10759;51.982;9.232;2023-03-03T09:47:03;101283.38;;;2.05;100.00
21203;BME280;10759;51.982;9.232;2023-03-03T09:49:35;101179.53;;;1.40;100.00
21203;BME280;10759;51.982;9.232;2023-03-03T09:52:20;101311.66;;;2.13;100.00
21203;BME280;10759;51.982;9.232;2023-03-03T09:54:56;101275.56;;;2.19;100.00
21203;BME280;10759;51.982;9.232;2023-03-03T09:57:38;101299.63;;;2.43;100.00
21203;BME280;10759;51.982;9.232;2023-03-03T10:00:19;101308.25;;;2.24;100.00
21203;BME280;10759;51.982;9.232;2023-03-03T10:03:02;101311.94;;;2.38;100.00
21203;BME280;10759;51.982;9.232;2023-03-03T10:05:45;101282.84;;;2.36;100.00
21203;BME280;10759;51.982;9.232;2023-03-03T10:08:25;101294.16;;;2.22;100.00
21203;BME280;10759;51.982;9.232;2023-03-03T10:11:07;101100.19;;;1.28;100.00
21203;BME280;10759;51.982;9.232;2023-03-03T10:13:48;101305.09;;;2.60;100.00
21203;BME280;10759;51.982;9.232;2023-03-03T10:16:35;101309.47;;;2.56;100.00
21203;BME280;10759;51.982;9.232;2023-03-03T10:19:14;101241.25;;;2.26;100.00
21203;BME280;10759;51.982;9.232;2023-03-03T10:21:50;101314.22;;;2.94;100.00
21203;BME280;10759;51.982;9.232;2023-03-03T10:24:26;101319.44;;;2.87;100.00
21203;BME280;10759;51.982;9.232;2023-03-03T10:27:04;101307.75;;;2.60;100.00
21203;BME280;10759;51.982;9.232;2023-03-03T10:29:48;101320.28;;;2.81;100.00
21203;BME280;10759;51.982;9.232;2023-03-03T10:32:29;101322.84;;;2.72;100.00
21203;BME280;10759;51.982;9.232;2023-03-03T10:35:29;101317.09;;;2.24;100.00
21203;BME280;10759;51.982;9.232;2023-03-03T10:38:13;101310.50;;;2.72;100.00
21203;BME280;10759;51.982;9.232;2023-03-03T10:40:49;101317.53;;;2.70;100.00
21203;BME280;10759;51.982;9.232;2023-03-03T10:43:33;101303.41;;;2.67;100.00
21203;BME280;10759;51.982;9.232;2023-03-03T10:46:22;101313.41;;;3.03;100.00
21203;BME280;10759;51.982;9.232;2023-03-03T10:49:13;101319.59;;;3.04;100.00
21203;BME280;10759;51.982;9.232;2023-03-03T10:54:49;101282.34;;;2.85;100.00
21203;BME280;10759;51.982;9.232;2023-03-03T10:57:23;101321.41;;;3.08;100.00
21203;BME280;10759;51.982;9.232;2023-03-03T11:00:02;101316.91;;;2.99;100.00
21203;BME280;10759;51.982;9.232;2023-03-03T11:02:39;101320.59;;;3.19;100.00
21203;BME280;10759;51.982;9.232;2023-03-03T11:05:18;101254.97;;;2.80;100.00
21203;BME280;10759;51.982;9.232;2023-03-03T11:07:51;101318.00;;;3.26;100.00
21203;BME280;10759;51.982;9.232;2023-03-03T11:10:29;101320.47;;;3.01;100.00
21203;BME280;10759;51.982;9.232;2023-03-03T11:13:07;101311.59;;;2.99;100.00
21203;BME280;10759;51.982;9.232;2023-03-03T11:15:46;101278.88;;;2.92;100.00
21203;BME280;10759;51.982;9.232;2023-03-03T11:18:25;101244.31;;;2.72;100.00
21203;BME280;10759;51.982;9.232;2023-03-03T11:21:06;101316.09;;;3.09;100.00
21203;BME280;10759;51.982;9.232;2023-03-03T11:23:49;101271.78;;;2.85;100.00
21203;BME280;10759;51.982;9.232;2023-03-03T11:26:29;101320.78;;;3.52;100.00
21203;BME280;10759;51.982;9.232;2023-03-03T11:29:12;101318.06;;;3.35;98.83
21203;BME280;10759;51.982;9.232;2023-03-03T11:31:52;101296.63;;;3.03;100.00
21203;BME280;10759;51.982;9.232;2023-03-03T11:34:42;101320.72;;;3.38;99.80
21203;BME280;10759;51.982;9.232;2023-03-03T11:37:19;101288.81;;;3.21;99.80
21203;BME280;10759;51.982;9.232;2023-03-03T11:39:49;101316.38;;;3.54;99.31
21203;BME280;10759;51.982;9.232;2023-03-03T11:42:24;101299.63;;;3.56;98.16
21203;BME280;10759;51.982;9.232;2023-03-03T11:44:55;101320.78;;;3.47;99.79
21203;BME280;10759;51.982;9.232;2023-03-03T11:47:31;101308.41;;;3.49;100.00
21203;BME280;10759;51.982;9.232;2023-03-03T11:50:04;101299.50;;;3.39;100.00
21203;BME280;10759;51.982;9.232;2023-03-03T11:52:41;101277.22;;;3.07;100.00
21203;BME280;10759;51.982;9.232;2023-03-03T11:55:16;101275.56;;;3.18;100.00
21203;BME280;10759;51.982;9.232;2023-03-03T11:57:51;101309.28;;;3.45;100.00
21203;BME280;10759;51.982;9.232;2023-03-03T12:00:27;101298.81;;;3.71;100.00
21203;BME280;10759;51.982;9.232;2023-03-03T12:03:28;101299.78;;;3.84;98.00
21203;BME280;10759;51.982;9.232;2023-03-03T12:06:14;101266.00;;;3.48;98.27
21203;BME280;10759;51.982;9.232;2023-03-03T12:09:05;101292.66;;;3.77;98.32
21203;BME280;10759;51.982;9.232;2023-03-03T12:11:45;101284.75;;;3.91;97.45
21203;BME280;10759;51.982;9.232;2023-03-03T12:14:34;101251.06;;;3.68;96.30
21203;BME280;10759;51.982;9.232;2023-03-03T12:17:13;101281.16;;;3.72;97.64
21203;BME280;10759;51.982;9.232;2023-03-03T12:19:53;101278.59;;;3.99;98.87
21203;BME280;10759;51.982;9.232;2023-03-03T12:22:30;101272.47;;;4.19;96.21
21203;BME280;10759;51.982;9.232;2023-03-03T12:25:12;101270.66;;;4.08;96.42
21203;BME280;10759;51.982;9.232;2023-03-03T12:27:49;101260.97;;;4.23;98.75
21203;BME280;10759;51.982;9.232;2023-03-03T12:33:25;101261.00;;;4.47;94.81
21203;BME280;10759;51.982;9.232;2023-03-03T12:36:08;101123.75;;;3.42;95.67
21203;BME280;10759;51.982;9.232;2023-03-03T12:38:48;101245.06;;;4.30;96.52
21203;BME280;10759;51.982;9.232;2023-03-03T12:41:24;101246.84;;;4.58;95.96
21203;BME280;10759;51.982;9.232;2023-03-03T12:44:00;101246.00;;;4.71;94.51
21203;BME280;10759;51.982;9.232;2023-03-03T12:46:37;101238.91;;;4.56;95.45
21203;BME280;10759;51.982;9.232;2023-03-03T12:49:09;101223.88;;;4.50;94.62
21203;BME280;10759;51.982;9.232;2023-03-03T12:51:47;101233.59;;;4.48;95.48
21203;BME280;10759;51.982;9.232;2023-03-03T12:57:13;101234.50;;;4.63;93.63
21203;BME280;10759;51.982;9.232;2023-03-03T12:59:49;101160.13;;;4.07;94.69
21203;BME280;10759;51.982;9.232;2023-03-03T13:02:40;101208.81;;;4.43;98.03
21203;BME280;10759;51.982;9.232;2023-03-03T13:05:19;101230.03;;;4.91;95.09
21203;BME280;10759;51.982;9.232;2023-03-03T13:07:57;101229.16;;;4.87;95.06
21203;BME280;10759;51.982;9.232;2023-03-03T13:10:34;101219.41;;;4.88;95.30
21203;BME280;10759;51.982;9.232;2023-03-03T13:13:08;101206.13;;;4.77;92.87
21203;BME280;10759;51.982;9.232;2023-03-03T13:15:43;101170.75;;;4.73;93.33
21203;BME280;10759;51.982;9.232;2023-03-03T13:18:30;101215.88;;;4.86;93.38
21203;BME280;10759;51.982;9.232;2023-03-03T13:21:08;101224.72;;;4.79;92.44
21203;BME280;10759;51.982;9.232;2023-03-03T13:23:46;101219.44;;;4.51;93.60
21203;BME280;10759;51.982;9.232;2023-03-03T13:26:19;101215.00;;;4.51;93.85
21203;BME280;10759;51.982;9.232;2023-03-03T13:28:55;101218.56;;;4.50;95.28
21203;BME280;10759;51.982;9.232;2023-03-03T13:31:30;101119.47;;;4.02;93.89